Time;durP1;ratioP1;P1;durP2;ratioP2;P2;SDS_P1;SDS_P2;PMS_P1;PMS_P2;Temp;Humidity;BMP_temperature;BMP_pressure;BME280_temperature;BME280_humidity;BME280_pressure;Samples;Min_cycle;Max_cycle;Signal;HPM_P1;HPM_P2
2021/10/24 00:01:42;;;;;;;16.58;7.68;;;4.30;99.90;;;5.27;100.00;101739.03;6101872;23;20009;-81
2021/10/24 00:04:08;;;;;;;13.93;6.80;;;4.40;99.90;;;5.32;100.00;101733.44;6076505;23;20018;-80
2021/10/24 00:06:34;;;;;;;12.23;6.80;;;4.40;99.90;;;5.36;100.00;101735.59;6101736;23;20006;-83
2021/10/24 00:09:00;;;;;;;13.23;7.13;;;4.50;99.90;;;5.36;100.00;101727.28;6077570;23;20010;-82
2021/10/24 00:11:29;;;;;;;12.52;6.75;;;4.40;99.90;;;5.35;100.00;101726.47;6101852;23;20021;-81
2021/10/24 00:13:54;;;;;;;15.82;7.07;;;4.50;99.90;;;5.44;100.00;101727.44;6100101;23;20010;-81
2021/10/24 00:16:20;;;;;;;12.35;7.68;;;4.50;99.90;;;5.45;99.84;101723.56;6078553;23;20030;-82
2021/10/24 00:18:47;;;;;;;13.35;7.40;;;4.60;99.90;;;5.43;100.00;101725.78;6102736;23;20006;-82
2021/10/24 00:21:13;;;;;;;14.50;7.00;;;4.50;99.90;;;5.41;100.00;101729.97;6077650;23;20065;-83
2021/10/24 00:23:39;;;;;;;9.52;6.45;;;4.50;99.90;;;5.34;100.00;101727.56;6110040;23;20018;-84
2021/10/24 00:26:05;;;;;;;12.02;7.05;;;4.50;99.90;;;5.21;99.59;101723.59;6113594;23;20042;-81
2021/10/24 00:28:31;;;;;;;12.85;7.57;;;4.40;99.90;;;5.25;100.00;101730.19;6089915;23;20010;-80
2021/10/24 00:30:57;;;;;;;14.32;7.57;;;4.40;99.90;;;5.29;100.00;101730.44;6110920;23;20007;-81
2021/10/24 00:33:23;;;;;;;12.80;8.35;;;4.40;99.90;;;5.31;100.00;101719.88;6088907;23;20019;-79
2021/10/24 00:35:50;;;;;;;13.70;8.10;;;4.50;99.90;;;5.35;100.00;101720.91;6111135;23;20002;-80
2021/10/24 00:38:16;;;;;;;17.30;8.68;;;4.40;99.90;;;5.35;100.00;101720.91;6103106;23;20321;-82
2021/10/24 00:40:42;;;;;;;13.32;8.63;;;4.50;99.90;;;5.33;99.68;101712.91;6076123;23;20351;-83
2021/10/24 00:43:08;;;;;;;13.75;9.45;;;4.40;99.90;;;5.25;100.00;101721.06;6103156;23;20046;-83
2021/10/24 00:45:34;;;;;;;17.40;10.55;;;4.30;99.90;;;5.15;99.82;101722.00;6101806;23;20428;-83
2021/10/24 00:48:00;;;;;;;13.63;9.93;;;4.20;99.90;;;5.01;99.86;101717.50;6100814;23;20440;-82
2021/10/24 00:50:27;;;;;;;13.52;8.85;;;4.10;99.90;;;4.85;100.00;101714.03;6102367;23;20010;-82
2021/10/24 00:52:54;;;;;;;19.23;8.40;;;4.00;99.90;;;4.75;100.00;101714.19;6101023;23;20435;-82
2021/10/24 00:55:23;;;;;;;12.98;8.05;;;3.90;99.90;;;4.64;100.00;101719.00;6101979;23;20003;-82
2021/10/24 00:57:52;;;;;;;14.73;7.72;;;3.70;99.90;;;4.54;100.00;101715.50;6051896;23;20010;-83
2021/10/24 01:00:20;;;;;;;13.13;8.13;;;3.70;99.90;;;4.52;100.00;101710.28;6076148;23;20021;-83
2021/10/24 01:02:47;;;;;;;14.35;8.63;;;3.60;99.90;;;4.51;100.00;101714.16;6101523;23;20124;-81
2021/10/24 01:05:15;;;;;;;12.25;7.78;;;3.60;99.90;;;4.45;100.00;101718.09;6101649;23;20018;-82
2021/10/24 01:07:48;;;;;;;15.43;8.23;;;3.50;99.90;;;4.43;100.00;101708.44;6102006;23;20010;-81
2021/10/24 01:10:16;;;;;;;14.73;7.82;;;3.50;99.90;;;4.33;100.00;101698.28;6029147;23;20018;-84
2021/10/24 01:12:50;;;;;;;18.15;8.82;;;3.50;99.90;;;4.30;100.00;101706.34;6101375;23;20436;-81
2021/10/24 01:15:19;;;;;;;13.15;7.47;;;3.40;99.90;;;4.28;100.00;101701.09;6101519;23;20046;-81
2021/10/24 01:17:48;;;;;;;13.52;8.55;;;3.40;99.90;;;4.31;100.00;101703.28;6052659;23;20018;-82
2021/10/24 01:20:25;;;;;;;13.32;7.63;;;3.40;99.90;;;4.28;100.00;101703.84;6102235;23;20360;-82
2021/10/24 01:22:53;;;;;;;16.50;9.02;;;3.40;99.90;;;4.28;100.00;101698.31;6076038;23;20010;-82
2021/10/24 01:25:20;;;;;;;14.30;7.72;;;3.40;99.90;;;4.21;100.00;101703.34;6099631;23;20059;-81
2021/10/24 01:27:49;;;;;;;15.35;7.95;;;3.30;99.90;;;4.11;100.00;101695.97;6048528;23;20034;-83
2021/10/24 01:30:16;;;;;;;14.00;8.18;;;3.20;99.90;;;4.13;100.00;101692.94;6076573;23;20040;-81
2021/10/24 01:32:43;;;;;;;14.55;7.50;;;3.30;99.90;;;4.16;100.00;101695.13;6100545;23;20201;-82
2021/10/24 01:35:10;;;;;;;15.85;8.15;;;3.30;99.90;;;4.24;100.00;101683.41;6100130;23;20006;-80
2021/10/24 01:37:42;;;;;;;16.23;8.02;;;3.40;99.90;;;4.40;100.00;101682.16;6076777;23;20026;-80
2021/10/24 01:40:15;;;;;;;14.82;7.57;;;3.50;99.90;;;4.60;100.00;101681.13;6053195;23;20014;-80
2021/10/24 01:42:51;;;;;;;15.02;8.65;;;3.70;99.90;;;4.77;100.00;101681.50;6051797;23;20467;-80
2021/10/24 01:45:20;;;;;;;16.25;8.43;;;3.90;99.90;;;4.92;100.00;101678.53;6101685;23;20014;-80
2021/10/24 01:47:46;;;;;;;15.00;7.28;;;4.00;99.90;;;5.01;100.00;101665.69;6051592;23;20021;-81
2021/10/24 01:50:12;;;;;;;14.82;8.15;;;4.10;99.90;;;5.04;100.00;101672.59;6075297;23;20385;-82
2021/10/24 01:52:45;;;;;;;14.20;7.93;;;4.10;99.90;;;5.00;100.00;101666.00;6098844;23;20033;-81
2021/10/24 01:55:13;;;;;;;15.55;7.97;;;4.10;99.90;;;5.00;100.00;101666.00;6073799;23;20014;-81
2021/10/24 01:57:46;;;;;;;13.40;6.60;;;4.10;99.90;;;5.05;100.00;101661.22;6075525;23;20085;-81
2021/10/24 02:00:15;;;;;;;11.95;6.78;;;4.20;99.90;;;5.20;100.00;101662.97;6076868;23;20011;-79
2021/10/24 02:02:41;;;;;;;13.23;6.75;;;4.40;99.90;;;5.29;100.00;101653.69;6076069;23;20061;-82
2021/10/24 02:05:08;;;;;;;10.82;6.28;;;4.50;99.90;;;5.31;99.40;101648.66;6075180;23;20011;-81
2021/10/24 02:07:34;;;;;;;14.00;6.45;;;4.50;99.90;;;5.42;99.47;101648.53;6051503;23;20064;-78
2021/10/24 02:10:04;;;;;;;16.05;6.50;;;4.60;99.90;;;5.48;98.96;101644.53;6101349;23;20370;-80
2021/10/24 02:12:29;;;;;;;11.48;6.70;;;4.60;99.90;;;5.42;98.55;101643.81;6074354;23;20014;-81
2021/10/24 02:14:55;;;;;;;16.38;7.22;;;4.50;99.90;;;5.33;98.67;101648.34;6074654;23;20046;-82
2021/10/24 02:17:21;;;;;;;10.55;6.30;;;4.50;99.90;;;5.30;98.78;101638.69;6076769;23;20023;-79
2021/10/24 02:19:47;;;;;;;10.30;6.25;;;4.50;99.90;;;5.32;99.38;101639.25;6102282;23;20340;-79
2021/10/24 02:22:13;;;;;;;9.98;6.45;;;4.50;99.90;;;5.39;98.78;101635.25;6076855;23;20352;-82
2021/10/24 02:24:41;;;;;;;15.07;7.10;;;4.50;99.90;;;5.40;98.47;101639.66;6100263;23;20070;-80
2021/10/24 02:27:07;;;;;;;11.90;6.03;;;4.50;99.90;;;5.42;98.66;101634.66;6101302;23;20018;-80
2021/10/24 02:29:34;;;;;;;12.98;6.80;;;4.60;99.90;;;5.44;98.65;101638.78;6102894;23;20022;-80
2021/10/24 02:32:00;;;;;;;12.35;5.88;;;4.60;99.90;;;5.43;98.29;101627.97;6101946;23;20010;-81
2021/10/24 02:34:25;;;;;;;12.48;6.82;;;4.50;99.90;;;5.45;98.78;101623.81;6102263;23;20321;-79
2021/10/24 02:36:51;;;;;;;10.07;5.60;;;4.50;99.90;;;5.43;98.21;101623.28;6077119;23;20045;-83
2021/10/24 02:39:18;;;;;;;9.77;5.90;;;4.60;99.90;;;5.44;98.54;101624.09;6101055;23;20017;-82
2021/10/24 02:41:44;;;;;;;10.98;6.00;;;4.60;99.90;;;5.48;98.64;101625.16;6102068;23;20015;-83
2021/10/24 02:44:10;;;;;;;12.35;6.53;;;4.60;99.90;;;5.47;98.56;101620.72;6103870;23;20011;-79
2021/10/24 02:46:36;;;;;;;14.15;6.13;;;4.60;99.90;;;5.48;98.76;101614.06;6112243;23;20463;-84
2021/10/24 02:49:02;;;;;;;11.82;6.75;;;4.60;99.90;;;5.54;98.93;101613.69;6081729;23;20006;-81
2021/10/24 02:51:28;;;;;;;7.90;5.68;;;4.70;99.90;;;5.51;98.45;101610.69;6102673;23;20006;-81
2021/10/24 02:53:53;;;;;;;12.32;6.53;;;4.60;99.90;;;5.50;99.27;101609.88;6104127;23;20006;-82
2021/10/24 02:56:19;;;;;;;10.15;5.57;;;4.70;99.90;;;5.57;98.97;101607.53;6086272;23;20010;-80
2021/10/24 02:58:45;;;;;;;11.25;5.80;;;4.70;99.90;;;5.58;99.01;101605.59;6105142;23;20042;-82
2021/10/24 03:01:11;;;;;;;14.20;6.32;;;4.70;99.90;;;5.60;98.99;101606.09;6101354;23;20259;-81
2021/10/24 03:03:36;;;;;;;10.48;5.28;;;4.80;99.90;;;5.66;98.93;101596.59;6107676;23;20448;-82
2021/10/24 03:06:03;;;;;;;12.27;6.00;;;4.80;99.90;;;5.73;98.63;101594.25;6108958;23;20010;-83
2021/10/24 03:08:29;;;;;;;11.07;6.15;;;4.90;99.90;;;5.74;98.35;101605.06;6102643;23;20049;-81
2021/10/24 03:10:55;;;;;;;9.48;5.57;;;4.90;99.90;;;5.76;98.84;101600.00;6076700;23;20029;-82
2021/10/24 03:13:21;;;;;;;9.85;5.60;;;4.90;99.90;;;5.86;98.58;101598.22;6101113;23;20333;-80
2021/10/24 03:15:48;;;;;;;8.93;5.75;;;5.00;99.90;;;5.90;98.39;101599.28;6077248;23;20022;-82
2021/10/24 03:18:14;;;;;;;9.50;5.13;;;5.10;99.90;;;5.95;98.04;101600.00;6101571;23;20038;-80
2021/10/24 03:20:40;;;;;;;5.85;4.35;;;5.10;99.90;;;6.02;97.45;101594.06;6076271;23;20018;-83
2021/10/24 03:23:06;;;;;;;8.07;5.03;;;5.20;99.90;;;5.98;97.73;101591.06;6101374;23;20014;-80
2021/10/24 03:25:32;;;;;;;8.60;5.15;;;5.10;99.90;;;5.99;97.52;101587.19;6102926;23;20006;-82
2021/10/24 03:27:59;;;;;;;8.43;5.10;;;5.10;99.90;;;5.98;98.00;101596.63;6075994;23;20456;-81
2021/10/24 03:30:25;;;;;;;12.43;5.40;;;5.10;99.90;;;5.94;98.18;101586.44;6074549;23;20038;-80
2021/10/24 03:32:51;;;;;;;12.63;5.40;;;5.10;99.90;;;5.97;98.33;101583.91;6082236;23;20025;-82
2021/10/24 03:35:18;;;;;;;8.40;5.05;;;5.10;99.90;;;5.97;97.95;101592.22;6113853;23;20006;-82
2021/10/24 03:37:44;;;;;;;9.50;5.32;;;5.10;99.90;;;5.93;97.82;101584.78;6113304;23;20017;-81
2021/10/24 03:40:11;;;;;;;7.38;4.78;;;5.00;99.90;;;5.89;98.83;101590.13;6078309;23;20011;-82
2021/10/24 03:42:37;;;;;;;11.77;5.07;;;5.00;99.90;;;5.94;98.37;101583.69;6076396;23;20409;-79
2021/10/24 03:45:09;;;;;;;9.98;5.20;;;5.00;99.90;;;5.97;98.38;101586.66;6076348;23;20014;-81
2021/10/24 03:47:36;;;;;;;10.10;4.82;;;5.10;99.90;;;6.05;98.31;101587.91;6076998;23;20017;-80
2021/10/24 03:50:04;;;;;;;12.93;5.03;;;5.20;99.90;;;6.07;98.40;101594.78;6053855;23;20007;-80
2021/10/24 03:52:31;;;;;;;6.93;4.43;;;5.30;99.90;;;6.08;98.72;101599.22;6101782;23;20006;-81
2021/10/24 03:54:57;;;;;;;12.75;4.88;;;5.30;99.90;;;6.19;98.02;101597.91;6076746;23;20347;-80
2021/10/24 03:57:23;;;;;;;13.93;4.80;;;5.40;99.90;;;6.19;97.94;101591.53;6074687;23;20010;-81
2021/10/24 03:59:49;;;;;;;8.88;4.70;;;5.40;99.90;;;6.27;97.69;101599.13;6099227;23;20385;-82
2021/10/24 04:02:16;;;;;;;9.15;5.25;;;5.40;99.90;;;6.29;97.42;101596.88;6098080;23;20460;-83
2021/10/24 04:04:44;;;;;;;12.43;4.95;;;5.50;99.90;;;6.28;97.01;101596.06;6099568;23;20006;-82
2021/10/24 04:07:11;;;;;;;7.00;4.35;;;5.50;99.90;;;6.22;97.61;101590.91;6099069;23;20022;-81
2021/10/24 04:09:38;;;;;;;10.52;4.60;;;5.50;99.90;;;6.26;97.39;101591.97;6074230;23;20006;-79
2021/10/24 04:12:05;;;;;;;7.38;4.43;;;5.50;99.90;;;6.32;97.40;101588.75;6099774;23;20002;-79
2021/10/24 04:14:31;;;;;;;9.32;4.97;;;5.50;99.90;;;6.24;97.63;101589.47;6073158;23;20046;-81
2021/10/24 04:16:57;;;;;;;10.57;4.13;;;5.50;99.90;;;6.22;97.53;101583.41;6073916;23;20038;-81
2021/10/24 04:19:23;;;;;;;11.27;5.38;;;5.50;99.90;;;6.21;97.50;101580.94;6074059;23;20471;-81
2021/10/24 04:21:48;;;;;;;9.93;4.55;;;5.40;99.90;;;6.24;97.42;101577.56;6098280;23;20058;-80
2021/10/24 04:24:14;;;;;;;8.93;4.57;;;5.40;99.90;;;6.19;97.61;101581.25;6097193;23;20025;-81
2021/10/24 04:26:40;;;;;;;11.10;4.85;;;5.40;99.90;;;6.19;97.80;101578.50;6098496;23;20046;-78
2021/10/24 04:29:06;;;;;;;17.60;5.90;;;5.30;99.90;;;6.13;97.97;101578.88;6099224;23;20054;-79
2021/10/24 04:31:32;;;;;;;13.85;5.03;;;5.30;99.90;;;6.08;97.95;101577.03;6099102;23;20376;-80
2021/10/24 04:33:58;;;;;;;11.05;5.10;;;5.20;99.90;;;6.02;98.34;101575.47;6072103;23;20097;-80
2021/10/24 04:36:23;;;;;;;9.80;5.20;;;5.20;99.90;;;5.92;98.55;101572.06;6098874;23;20383;-83
2021/10/24 04:38:49;;;;;;;16.27;5.30;;;5.10;99.90;;;5.87;99.10;101566.59;6098409;23;20007;-80
2021/10/24 04:41:16;;;;;;;7.18;5.22;;;5.00;99.90;;;5.85;99.10;101558.56;6073329;23;20470;-80
2021/10/24 04:43:42;;;;;;;8.73;5.03;;;5.00;99.90;;;5.83;99.40;101560.81;6084980;23;20309;-80
2021/10/24 04:46:08;;;;;;;14.35;5.90;;;5.00;99.90;;;5.79;99.74;101557.00;6076717;23;20014;-84
2021/10/24 04:48:34;;;;;;;13.45;5.40;;;5.00;99.90;;;5.81;99.63;101560.31;6102191;23;20006;-84
2021/10/24 04:51:00;;;;;;;11.40;5.10;;;4.90;99.90;;;5.77;100.00;101551.78;6077175;23;20006;-81
2021/10/24 04:53:26;;;;;;;9.18;5.63;;;4.90;99.90;;;5.79;100.00;101552.28;6101980;23;20049;-83
2021/10/24 04:55:53;;;;;;;11.20;5.82;;;4.90;99.90;;;5.78;100.00;101550.63;6102318;23;20010;-82
2021/10/24 04:58:19;;;;;;;16.40;6.00;;;5.00;99.90;;;5.75;99.87;101545.69;6076811;23;20018;-81
2021/10/24 05:00:45;;;;;;;8.35;5.13;;;4.90;99.90;;;5.76;99.86;101550.13;6075221;23;20014;-80
2021/10/24 05:03:12;;;;;;;9.70;5.40;;;4.90;99.90;;;5.74;99.86;101552.38;6101209;23;20142;-84
2021/10/24 05:05:38;;;;;;;11.25;6.43;;;4.90;99.90;;;5.69;100.00;101546.09;6099584;23;20010;-81
2021/10/24 05:08:05;;;;;;;12.35;6.25;;;4.80;99.90;;;5.66;100.00;101533.66;6074662;23;20049;-81
2021/10/24 05:10:31;;;;;;;14.15;6.80;;;4.80;99.90;;;5.60;100.00;101537.66;6099739;23;20006;-81
2021/10/24 05:12:57;;;;;;;12.00;6.07;;;4.70;99.90;;;5.48;99.81;101530.94;6099120;23;20053;-82
2021/10/24 05:15:23;;;;;;;10.63;5.97;;;4.60;99.90;;;5.31;100.00;101540.63;6099734;23;20006;-80
2021/10/24 05:17:50;;;;;;;10.65;5.93;;;4.50;99.90;;;5.24;100.00;101525.50;6099188;23;20077;-81
2021/10/24 05:20:16;;;;;;;13.20;5.75;;;4.40;99.90;;;5.13;100.00;101530.41;6099771;23;20037;-82
2021/10/24 05:22:42;;;;;;;9.48;6.00;;;4.20;99.90;;;5.03;100.00;101532.50;6098683;23;20013;-79
2021/10/24 05:25:08;;;;;;;10.48;5.35;;;4.10;99.90;;;4.93;100.00;101527.09;6072751;23;20011;-79
2021/10/24 05:27:34;;;;;;;9.93;5.82;;;4.00;99.90;;;4.81;100.00;101529.50;6072594;23;20010;-79
2021/10/24 05:30:00;;;;;;;13.05;5.25;;;3.90;99.90;;;4.72;100.00;101529.31;6099586;23;20029;-80
2021/10/24 05:32:27;;;;;;;12.98;6.32;;;3.80;99.90;;;4.69;100.00;101522.44;6098310;23;20046;-80
2021/10/24 05:34:53;;;;;;;8.25;5.45;;;3.80;99.90;;;4.63;100.00;101531.94;6098776;23;20006;-82
2021/10/24 05:37:19;;;;;;;9.55;5.55;;;3.70;99.90;;;4.53;100.00;101523.75;6072988;23;20120;-82
2021/10/24 05:39:44;;;;;;;9.77;5.78;;;3.60;99.90;;;4.41;100.00;101528.91;6072254;23;20023;-81
2021/10/24 05:42:10;;;;;;;10.30;5.40;;;3.50;99.90;;;4.28;100.00;101521.31;6072850;23;20014;-79
2021/10/24 05:44:36;;;;;;;11.95;7.18;;;3.40;99.90;;;4.09;100.00;101525.97;6072674;23;20010;-82
2021/10/24 05:47:02;;;;;;;11.73;6.07;;;3.30;99.90;;;3.96;100.00;101523.91;6106331;23;20013;-84
2021/10/24 05:49:28;;;;;;;15.40;5.78;;;3.20;99.90;;;3.99;100.00;101523.31;6104087;23;20030;-82
2021/10/24 05:51:54;;;;;;;11.35;6.90;;;3.20;99.90;;;4.07;100.00;101520.75;6099755;23;20006;-84
2021/10/24 05:54:20;;;;;;;22.67;7.85;;;3.20;99.90;;;4.11;100.00;101523.75;6100321;23;20455;-85
2021/10/24 05:56:46;;;;;;;10.32;6.57;;;3.20;99.90;;;4.09;100.00;101510.22;6078586;23;20017;-84
2021/10/24 05:59:11;;;;;;;13.88;6.80;;;3.20;99.90;;;4.03;100.00;101516.09;6080074;23;20014;-79
2021/10/24 06:01:37;;;;;;;14.82;6.65;;;3.20;99.90;;;4.13;100.00;101514.03;6102006;23;20066;-81
2021/10/24 06:04:03;;;;;;;10.90;6.55;;;3.20;99.90;;;4.14;100.00;101514.88;6079963;23;20037;-80
2021/10/24 06:06:29;;;;;;;12.65;7.40;;;3.30;99.90;;;4.46;100.00;101515.03;6087750;23;20032;-83
2021/10/24 06:08:55;;;;;;;15.18;7.05;;;3.30;99.90;;;4.42;100.00;101510.38;6077872;23;20017;-81
2021/10/24 06:11:32;;;;;;;15.77;7.60;;;3.50;99.90;;;4.46;100.00;101509.50;6074522;23;20007;-83
2021/10/24 06:13:58;;;;;;;13.93;6.68;;;3.60;99.90;;;4.49;100.00;101513.59;6073928;23;20073;-80
2021/10/24 06:16:25;;;;;;;15.55;7.70;;;3.60;99.90;;;4.56;100.00;101514.06;6100706;23;20074;-80
2021/10/24 06:18:52;;;;;;;11.35;6.32;;;3.70;99.90;;;4.63;100.00;101509.81;6074496;23;20006;-78
2021/10/24 06:21:18;;;;;;;12.75;6.72;;;3.70;99.90;;;4.67;100.00;101505.31;6101301;23;20006;-80
2021/10/24 06:23:43;;;;;;;11.40;5.68;;;3.70;99.90;;;4.66;100.00;101511.97;6100376;23;20082;-79
2021/10/24 06:26:09;;;;;;;11.50;6.55;;;3.70;99.90;;;4.58;100.00;101507.13;6100001;23;20010;-81
2021/10/24 06:28:35;;;;;;;13.93;7.03;;;3.60;99.90;;;4.54;100.00;101508.81;6100438;23;20432;-82
2021/10/24 06:31:02;;;;;;;11.98;6.43;;;3.60;99.90;;;4.40;100.00;101502.34;6074869;23;20014;-82
2021/10/24 06:33:28;;;;;;;12.80;6.30;;;3.50;99.90;;;4.35;100.00;101496.06;6102150;23;20006;-77
2021/10/24 06:35:54;;;;;;;12.15;6.43;;;3.40;99.90;;;4.38;100.00;101492.72;6091274;23;20018;-79
2021/10/24 06:38:20;;;;;;;11.55;6.97;;;3.40;99.90;;;4.52;100.00;101490.88;6102050;23;20064;-80
2021/10/24 06:40:47;;;;;;;10.85;7.47;;;3.50;99.90;;;4.62;100.00;101488.78;6101558;23;20065;-80
2021/10/24 06:43:15;;;;;;;11.95;5.93;;;3.70;99.90;;;4.94;100.00;101498.31;6076585;23;20404;-80
2021/10/24 06:45:41;;;;;;;13.13;6.88;;;3.80;99.90;;;5.50;100.00;101496.25;6073636;23;20006;-78
2021/10/24 06:48:07;;;;;;;13.98;6.55;;;4.00;99.90;;;5.79;99.93;101482.16;6073146;23;20010;-80
2021/10/24 06:50:34;;;;;;;11.85;6.25;;;4.20;99.90;;;6.00;98.07;101499.25;6098256;23;20010;-80
2021/10/24 06:53:00;;;;;;;8.80;6.13;;;4.40;99.90;;;6.07;97.99;101505.22;6052397;23;20111;-80
2021/10/24 06:55:25;;;;;;;12.07;7.22;;;4.50;99.90;;;5.96;98.65;101496.28;6100923;23;20006;-79
2021/10/24 06:57:56;;;;;;;7.38;5.97;;;4.70;99.90;;;6.15;98.40;101490.63;6100036;23;20014;-80
2021/10/24 07:00:26;;;;;;;13.32;6.28;;;4.90;99.90;;;6.44;96.75;101499.47;6073777;23;20014;-81
2021/10/24 07:02:52;;;;;;;8.98;5.70;;;5.10;99.90;;;6.77;95.77;101502.91;6073527;23;20355;-82
2021/10/24 07:05:20;;;;;;;11.60;6.18;;;5.40;99.90;;;7.13;93.49;101502.88;6099968;23;20010;-81
2021/10/24 07:07:46;;;;;;;9.00;5.03;;;5.70;99.90;;;7.46;91.25;101503.47;6073302;23;20348;-81
2021/10/24 07:10:16;;;;;;;10.13;4.88;;;5.90;99.90;;;7.84;89.37;101511.06;6072657;23;20011;-78
2021/10/24 07:12:43;;;;;;;7.32;4.97;;;6.20;99.90;;;8.27;87.39;101502.91;6073274;23;20014;-80
2021/10/24 07:15:10;;;;;;;9.40;4.97;;;6.60;99.90;;;8.60;85.43;101502.56;6099563;23;20006;-82
2021/10/24 07:17:37;;;;;;;7.47;4.32;;;6.90;99.90;;;8.88;83.33;101501.13;6100161;23;20101;-78
2021/10/24 07:20:08;;;;;;;7.32;4.43;;;7.20;99.90;;;9.40;82.11;101508.34;6074608;23;20041;-81
2021/10/24 07:22:34;;;;;;;7.15;5.40;;;7.60;99.90;;;9.94;79.83;101509.53;6099092;23;20351;-80
2021/10/24 07:25:03;;;;;;;9.00;5.60;;;8.10;99.90;;;10.32;77.08;101511.53;6072833;23;20010;-80
2021/10/24 07:27:30;;;;;;;7.15;4.63;;;8.40;99.90;;;10.40;76.08;101517.09;6049613;23;20014;-81
2021/10/24 07:29:56;;;;;;;8.52;4.35;;;8.60;99.90;;;10.37;75.81;101525.34;6098702;23;20389;-80
2021/10/24 07:32:22;;;;;;;7.45;4.80;;;8.60;99.90;;;10.33;75.79;101513.19;6098656;23;20006;-85
2021/10/24 07:34:49;;;;;;;8.48;5.07;;;8.70;99.90;;;10.43;76.66;101519.22;6102415;23;20437;-81
2021/10/24 07:37:15;;;;;;;8.85;4.65;;;8.80;99.90;;;10.53;75.46;101518.81;6114087;23;20010;-83
2021/10/24 07:39:42;;;;;;;6.78;4.22;;;9.00;99.90;;;10.66;76.21;101518.94;6113624;23;20030;-80
2021/10/24 07:42:09;;;;;;;9.30;4.18;;;9.10;99.90;;;10.72;76.51;101518.41;6076590;23;20025;-81
2021/10/24 07:44:37;;;;;;;6.95;4.03;;;9.30;99.90;;;10.78;77.03;101514.25;6098257;23;20405;-81
2021/10/24 07:47:04;;;;;;;9.77;4.82;;;9.40;99.90;;;10.87;76.15;101509.44;6051764;23;20015;-81
2021/10/24 07:49:30;;;;;;;6.28;3.65;;;9.50;99.90;;;10.58;75.76;101510.28;6101042;23;20021;-82
2021/10/24 07:51:59;;;;;;;8.55;4.18;;;9.40;99.90;;;9.93;75.89;101507.06;6099072;23;20013;-82
2021/10/24 07:54:27;;;;;;;5.97;3.63;;;9.20;99.90;;;10.17;76.84;101504.56;6072823;23;20021;-81
2021/10/24 07:56:53;;;;;;;7.47;4.13;;;9.20;99.90;;;9.95;76.50;101502.78;6098513;23;20030;-78
2021/10/24 07:59:20;;;;;;;7.65;3.78;;;9.10;99.90;;;10.21;76.49;101502.72;6099203;23;20013;-82
2021/10/24 08:01:46;;;;;;;6.88;3.80;;;9.20;99.90;;;10.43;76.23;101496.88;6049604;23;20018;-80
2021/10/24 08:04:12;;;;;;;7.88;3.88;;;9.30;99.90;;;10.42;73.82;101494.41;6098002;23;20010;-82
2021/10/24 08:06:39;;;;;;;7.80;4.25;;;9.40;99.90;;;10.63;75.71;101498.06;6098536;23;20089;-82
2021/10/24 08:09:11;;;;;;;8.30;3.92;;;9.50;99.90;;;10.10;74.75;101484.69;6073175;23;20444;-81
2021/10/24 08:11:39;;;;;;;7.30;4.10;;;9.30;99.90;;;10.54;74.17;101489.75;6098542;23;20005;-82
2021/10/24 08:14:08;;;;;;;8.02;3.58;;;9.50;99.90;;;10.69;73.08;101488.31;6098527;23;20038;-79
2021/10/24 08:16:38;;;;;;;12.75;3.92;;;9.70;99.90;;;10.92;72.11;101477.66;6100691;23;20333;-82
2021/10/24 08:19:04;;;;;;;7.03;3.40;;;9.80;99.90;;;10.91;72.61;101482.44;6099248;23;20014;-81
2021/10/24 08:21:32;;;;;;;8.32;3.65;;;9.90;99.90;;;10.71;71.00;101476.81;6101060;23;20013;-80
2021/10/24 08:23:59;;;;;;;8.43;3.03;;;9.90;99.90;;;11.11;71.48;101466.81;6076533;23;20431;-81
2021/10/24 08:26:26;;;;;;;5.88;2.72;;;10.10;99.90;;;11.35;69.73;101474.50;6075510;23;20011;-80
2021/10/24 08:28:53;;;;;;;8.50;3.75;;;10.20;99.90;;;11.56;69.53;101462.09;6052119;23;20030;-81
2021/10/24 08:31:24;;;;;;;5.00;2.60;;;10.40;99.90;;;11.71;68.47;101469.06;6101774;23;20002;-81
2021/10/24 08:33:56;;;;;;;5.53;2.78;;;10.60;99.90;;;11.93;68.34;101468.63;6101356;23;20017;-81
2021/10/24 08:36:25;;;;;;;6.43;3.05;;;10.80;99.90;;;11.71;67.07;101460.66;6075266;23;20478;-80
2021/10/24 08:38:53;;;;;;;6.68;3.20;;;10.80;99.90;;;12.10;68.54;101451.59;6029126;23;20328;-79
2021/10/24 08:41:29;;;;;;;8.27;2.40;;;11.00;99.90;;;12.17;66.43;101450.22;6074901;23;20014;-83
2021/10/24 08:44:03;;;;;;;6.25;3.00;;;11.10;99.90;;;12.40;65.58;101438.19;6077192;23;20021;-82
2021/10/24 08:46:32;;;;;;;6.68;2.67;;;11.20;99.90;;;11.89;65.92;101450.88;6075125;23;20007;-79
2021/10/24 08:48:59;;;;;;;8.07;3.00;;;11.20;99.90;;;11.98;67.52;101440.41;6050837;23;20102;-82
2021/10/24 08:51:30;;;;;;;10.45;3.28;;;11.20;99.90;;;12.20;65.63;101439.13;6074894;23;20006;-77
2021/10/24 08:53:57;;;;;;;10.10;2.80;;;11.20;99.90;;;11.99;64.13;101433.66;6073421;23;20041;-80
2021/10/24 08:56:29;;;;;;;8.27;2.42;;;11.30;99.90;;;12.57;66.32;101437.94;6098556;23;20021;-81
2021/10/24 08:58:57;;;;;;;3.60;2.25;;;11.50;99.90;;;12.69;63.93;101431.50;6100502;23;20085;-82
2021/10/24 09:01:24;;;;;;;4.72;2.53;;;11.60;99.90;;;13.18;62.95;101438.63;6074881;23;20010;-80
2021/10/24 09:04:13;;;;;;;5.32;2.67;;;11.90;99.90;;;13.35;61.62;101425.47;6100763;23;20014;-81
2021/10/24 09:07:03;;;;;;;4.82;2.70;;;12.20;99.90;;;13.05;60.28;101434.19;6074388;23;20006;-80
2021/10/24 09:09:37;;;;;;;5.45;2.95;;;12.20;99.90;;;13.32;61.36;101426.19;6073990;23;20033;-80
2021/10/24 09:12:10;;;;;;;6.40;3.08;;;12.20;99.90;;;13.36;60.32;101429.88;6098950;23;20459;-81
2021/10/24 09:14:53;;;;;;;9.15;2.80;;;12.40;99.90;;;13.91;59.79;101418.56;6099006;23;20010;-79
2021/10/24 09:17:27;;;;;;;7.95;2.95;;;12.60;99.90;;;13.68;60.02;101411.91;6074973;23;20018;-79
2021/10/24 09:20:02;;;;;;;4.75;2.83;;;12.60;99.90;;;14.09;58.33;101416.22;6074567;23;20010;-81
2021/10/24 09:22:39;;;;;;;6.13;2.67;;;12.80;99.90;;;14.27;56.36;101415.47;6075391;23;20024;-81
2021/10/24 09:25:14;;;;;;;6.43;2.50;;;13.00;99.90;;;14.11;56.38;101414.66;6073210;23;20364;-81
2021/10/24 09:27:55;;;;;;;5.10;2.50;;;13.00;99.90;;;14.75;56.19;101414.19;6099843;23;20013;-80
2021/10/24 09:30:36;;;;;;;8.40;2.72;;;13.30;99.90;;;14.57;56.83;101413.00;6074235;23;20030;-83
2021/10/24 09:33:11;;;;;;;7.90;2.70;;;13.40;99.90;;;14.80;56.51;101407.47;6052743;23;20015;-79
2021/10/24 09:35:50;;;;;;;7.35;2.47;;;13.50;99.90;;;14.83;55.24;101403.94;6077665;23;20431;-80
2021/10/24 09:38:25;;;;;;;4.18;2.60;;;13.60;99.90;;;14.67;55.55;101392.72;6052959;23;20018;-79
2021/10/24 09:40:58;;;;;;;6.03;2.60;;;13.50;99.90;;;14.78;55.80;101392.94;6051059;23;20070;-80
2021/10/24 09:43:30;;;;;;;6.22;2.38;;;13.50;99.90;;;14.54;56.24;101391.22;6074454;23;20062;-80
2021/10/24 09:46:02;;;;;;;4.25;2.40;;;13.50;99.90;;;14.94;54.74;101390.06;6098065;23;20010;-81
2021/10/24 09:48:35;;;;;;;6.43;2.40;;;13.60;98.70;;;14.52;55.19;101385.16;6072899;23;20440;-80
2021/10/24 09:51:10;;;;;;;5.00;2.00;;;13.60;97.80;;;15.10;53.89;101393.63;6072463;23;20057;-82
2021/10/24 09:53:41;;;;;;;4.55;2.00;;;13.80;97.30;;;15.09;53.83;101387.19;6072620;23;20010;-80
2021/10/24 09:56:15;;;;;;;7.32;2.15;;;13.90;96.10;;;15.28;55.07;101384.34;6072785;23;20022;-80
2021/10/24 09:58:47;;;;;;;4.13;2.00;;;14.00;99.20;;;15.06;52.45;101376.66;6072789;23;20065;-81
2021/10/24 10:01:20;;;;;;;4.80;2.03;;;14.00;94.10;;;15.19;52.13;101369.69;6097387;23;20093;-81
2021/10/24 10:03:48;;;;;;;5.85;2.17;;;14.00;92.80;;;15.30;53.13;101375.53;6072626;23;20050;-82
2021/10/24 10:06:24;;;;;;;6.97;1.90;;;14.10;94.50;;;15.20;52.62;101376.97;6098547;23;20011;-81
2021/10/24 10:08:50;;;;;;;7.15;1.80;;;14.20;92.60;;;14.67;52.22;101369.44;6099186;23;20009;-81
2021/10/24 10:11:46;;;;;;;5.75;2.05;;;14.00;90.70;;;15.20;52.28;101371.34;6099777;23;20022;-82
2021/10/24 10:14:31;;;;;;;6.60;1.85;;;14.10;92.10;;;14.82;51.30;101373.34;6099218;23;20022;-81
2021/10/24 10:17:21;;;;;;;4.25;1.58;;;14.10;89.20;;;14.89;51.36;101365.06;6049524;23;20163;-81
2021/10/24 10:19:47;;;;;;;4.65;2.30;;;14.00;89.80;;;14.88;51.52;101363.41;6073484;23;20041;-80
2021/10/24 10:22:22;;;;;;;4.50;1.95;;;14.00;89.30;;;15.01;52.94;101357.28;6099155;23;20098;-79